Stayner, Canada
Current Conditions -  °F | °C
As of 3:54 PM on Tuesday 21 Oct 2014 (Local Time) from CYBN Reporting Station
Overcast Overcast  
Wind Chill: 37°   Ceiling: 300
Heat Index: 43°   Visibility: 3mi
Dew Point: 43°   Wind: 9mph
Humidity: 100%   Direction: 350°N
Pressure: 30.02"   Gusts: NA
Location:  44.42°N, 80.09°W
Report Text: CYBN 211954Z AUTO 35008KT 310V030 3SM OVC003 06/06 A3002
Loading
Personal Weather Stations






























Interactive Weather Map
Tropical Storm Tracking
New forecast layout! Learn more

10-Day Weather Forecast

Advertisements
Track Severe Weather on mobile